createdAt,value
2023-11-03T00:00:26.472Z,85.28
2023-11-03T00:02:59.094Z,85.02
2023-11-03T00:05:28.718Z,85.26
2023-11-03T00:07:55.695Z,85.20
2023-11-03T00:10:24.819Z,85.05
2023-11-03T00:12:54.431Z,84.70
2023-11-03T00:15:21.411Z,85.19
2023-11-03T00:20:36.571Z,85.83
2023-11-03T00:23:03.554Z,85.70
2023-11-03T00:25:30.409Z,86.09
2023-11-03T00:27:57.045Z,85.98
2023-11-03T00:30:23.734Z,85.48
2023-11-03T00:32:50.487Z,85.83
2023-11-03T00:35:17.375Z,85.70
2023-11-03T00:37:45.867Z,85.59
2023-11-03T00:40:14.583Z,85.70
2023-11-03T00:42:41.402Z,85.63
2023-11-03T00:45:11.307Z,85.99
2023-11-03T00:47:39.059Z,86.13
2023-11-03T00:50:10.723Z,85.70
2023-11-03T00:52:39.538Z,85.73
2023-11-03T00:55:10.198Z,85.60
2023-11-03T00:57:40.619Z,85.18
2023-11-03T01:00:14.068Z,85.96
2023-11-03T01:02:45.010Z,85.20
2023-11-03T01:05:15.900Z,85.73
2023-11-03T01:07:45.493Z,86.05
2023-11-03T01:10:17.614Z,85.86
2023-11-03T01:12:47.029Z,85.84
2023-11-03T01:15:16.332Z,86.02
2023-11-03T01:17:43.291Z,86.16
2023-11-03T01:20:17.740Z,86.36
2023-11-03T01:22:49.314Z,86.26
2023-11-03T01:25:19.560Z,86.24
2023-11-03T01:27:46.823Z,86.51
2023-11-03T01:30:14.194Z,86.48
2023-11-03T01:32:41.081Z,86.51
2023-11-03T01:35:10.457Z,86.30
2023-11-03T01:37:37.800Z,86.67
2023-11-03T01:40:09.391Z,86.29
2023-11-03T01:42:41.119Z,86.21
2023-11-03T01:45:11.530Z,86.24
2023-11-03T01:47:38.140Z,86.09
2023-11-03T01:50:06.222Z,86.00
2023-11-03T01:52:35.393Z,86.19
2023-11-03T01:55:07.626Z,85.96
2023-11-03T01:57:36.862Z,85.99
2023-11-03T02:00:05.312Z,86.06
2023-11-03T02:02:33.273Z,86.17
2023-11-03T02:05:03.130Z,86.09
2023-11-03T02:07:29.789Z,86.01
2023-11-03T02:09:58.571Z,86.08
2023-11-03T02:12:25.455Z,85.85
2023-11-03T02:14:52.847Z,86.00
2023-11-03T02:17:20.065Z,85.91
2023-11-03T02:19:46.713Z,86.13
2023-11-03T02:22:13.304Z,85.93
2023-11-03T02:24:42.183Z,85.83
2023-11-03T02:27:08.826Z,86.03
2023-11-03T02:29:36.052Z,86.19
2023-11-03T02:32:05.313Z,85.85
2023-11-03T02:34:32.173Z,85.94
2023-11-03T02:37:01.440Z,85.96
2023-11-03T02:39:28.493Z,85.70
2023-11-03T02:41:54.992Z,86.26
2023-11-03T02:44:21.468Z,85.87
2023-11-03T02:46:48.177Z,86.36
2023-11-03T02:49:14.787Z,86.20
2023-11-03T02:51:41.616Z,86.18
2023-11-03T02:54:08.745Z,86.33
2023-11-03T02:56:35.507Z,86.06
2023-11-03T02:59:07.164Z,86.30
2023-11-03T03:01:40.613Z,86.76
2023-11-03T03:04:08.248Z,86.76
2023-11-03T03:06:37.138Z,87.17
2023-11-03T03:09:06.270Z,86.94
2023-11-03T03:11:35.917Z,86.98
2023-11-03T03:14:02.423Z,86.90
2023-11-03T03:16:31.487Z,87.31
2023-11-03T03:18:58.168Z,87.27
2023-11-03T03:21:24.768Z,87.66
2023-11-03T03:23:51.483Z,87.65
2023-11-03T03:26:20.249Z,87.52
2023-11-03T03:28:47.166Z,87.45
2023-11-03T03:31:13.799Z,87.23
2023-11-03T03:33:40.564Z,87.33
2023-11-03T03:36:09.909Z,86.79
2023-11-03T03:38:38.914Z,86.95
2023-11-03T03:41:11.195Z,86.46
2023-11-03T03:43:37.673Z,86.23
2023-11-03T03:46:04.520Z,86.69
2023-11-03T03:48:31.119Z,86.04
2023-11-03T03:51:00.280Z,85.83
2023-11-03T03:53:26.950Z,85.93
2023-11-03T03:55:53.669Z,85.57
2023-11-03T03:58:22.850Z,85.55
2023-11-03T04:00:53.115Z,85.64
2023-11-03T04:03:20.525Z,85.77
2023-11-03T04:05:47.330Z,85.81
2023-11-03T04:08:13.890Z,85.67
2023-11-03T04:10:40.622Z,86.13
2023-11-03T04:13:09.614Z,85.78
2023-11-03T04:15:38.590Z,86.11
2023-11-03T04:18:08.563Z,86.96
2023-11-03T04:20:35.109Z,87.06
2023-11-03T04:23:01.679Z,86.95
2023-11-03T04:25:28.242Z,87.50
2023-11-03T04:27:54.727Z,87.54
2023-11-03T04:30:23.688Z,87.67
2023-11-03T04:32:52.951Z,88.29
2023-11-03T04:35:19.632Z,88.06
2023-11-03T04:37:46.299Z,87.86
2023-11-03T04:40:13.123Z,88.12
2023-11-03T04:42:42.533Z,88.38
2023-11-03T04:45:11.686Z,88.16
2023-11-03T04:47:38.242Z,88.50
2023-11-03T04:50:07.609Z,88.53
2023-11-03T04:52:37.509Z,88.88
2023-11-03T04:55:10.360Z,88.65
2023-11-03T04:57:41.192Z,88.79
2023-11-03T05:00:10.903Z,89.01
2023-11-03T05:02:37.937Z,88.70
2023-11-03T05:05:11.069Z,88.66
2023-11-03T05:07:41.778Z,88.74
2023-11-03T05:10:11.638Z,88.74
2023-11-03T05:12:38.723Z,88.71
2023-11-03T05:15:08.995Z,88.79
2023-11-03T05:17:35.933Z,88.74
2023-11-03T05:20:04.153Z,88.82
2023-11-03T05:22:30.708Z,88.73
2023-11-03T05:25:00.459Z,88.73
2023-11-03T05:27:29.554Z,88.41
2023-11-03T05:29:56.337Z,88.75
2023-11-03T05:32:25.557Z,88.50
2023-11-03T05:34:52.185Z,88.47
2023-11-03T05:37:21.646Z,88.32
2023-11-03T05:39:50.677Z,88.55
2023-11-03T05:42:22.212Z,88.63
2023-11-03T05:44:51.025Z,88.70
2023-11-03T05:47:17.782Z,88.81
2023-11-03T05:49:44.447Z,88.12
2023-11-03T05:52:11.004Z,88.90
2023-11-03T05:54:37.599Z,88.56
2023-11-03T05:57:04.278Z,88.43
2023-11-03T05:59:30.973Z,88.29
2023-11-03T06:01:57.473Z,88.58
2023-11-03T06:04:24.064Z,88.88
2023-11-03T06:06:53.325Z,88.53
2023-11-03T06:09:19.859Z,88.58
2023-11-03T06:11:46.576Z,88.86
2023-11-03T06:14:13.739Z,88.87
2023-11-03T06:16:40.626Z,88.43
2023-11-03T06:19:09.752Z,88.55
2023-11-03T06:21:36.795Z,88.83
2023-11-03T06:24:03.422Z,88.70
2023-11-03T06:26:29.920Z,88.78
2023-11-03T06:28:57.758Z,89.17
2023-11-03T06:31:27.929Z,88.97
2023-11-03T06:33:56.992Z,88.91
2023-11-03T06:36:31.006Z,89.05
2023-11-03T06:39:04.766Z,89.28
2023-11-03T06:41:31.278Z,88.91
2023-11-03T06:43:57.781Z,89.30
2023-11-03T06:46:24.724Z,89.13
2023-11-03T06:48:51.389Z,89.32
2023-11-03T06:51:18.026Z,89.38
2023-11-03T06:53:46.855Z,88.62
2023-11-03T06:56:13.476Z,88.83
2023-11-03T06:58:41.043Z,89.37
2023-11-03T07:01:10.010Z,88.76
2023-11-03T07:03:37.125Z,89.34
2023-11-03T07:06:05.619Z,89.06
2023-11-03T07:08:32.292Z,89.26
2023-11-03T07:11:01.742Z,89.43
2023-11-03T07:13:33.107Z,88.88
2023-11-03T07:15:59.792Z,88.93
2023-11-03T07:18:26.438Z,88.86
2023-11-03T07:20:57.790Z,89.28
2023-11-03T07:23:24.512Z,89.21
2023-11-03T07:25:57.184Z,88.75
2023-11-03T07:28:24.211Z,88.83
2023-11-03T07:30:52.209Z,88.89
2023-11-03T07:33:19.860Z,88.81
2023-11-03T07:35:46.554Z,88.58
2023-11-03T07:38:15.748Z,88.81
2023-11-03T07:40:44.978Z,88.49
2023-11-03T07:43:15.429Z,88.77
2023-11-03T07:46:02.256Z,88.68
2023-11-03T07:48:28.993Z,88.64
2023-11-03T07:50:55.580Z,88.33
2023-11-03T07:53:22.111Z,88.65
2023-11-03T07:55:52.031Z,88.60
2023-11-03T07:58:18.614Z,88.78
2023-11-03T08:00:45.717Z,88.44
2023-11-03T08:03:13.712Z,88.08
2023-11-03T08:05:42.774Z,88.43
2023-11-03T08:08:11.592Z,88.23
2023-11-03T08:10:42.618Z,88.25
2023-11-03T08:13:11.678Z,88.18
2023-11-03T08:15:41.869Z,88.25
2023-11-03T08:18:08.464Z,88.23
2023-11-03T08:20:35.482Z,88.11
2023-11-03T08:23:05.264Z,88.47
2023-11-03T08:25:32.447Z,88.12
2023-11-03T08:27:59.448Z,87.93
2023-11-03T08:30:28.743Z,87.72
2023-11-03T08:32:59.099Z,87.96
2023-11-03T08:35:31.173Z,87.93
2023-11-03T08:38:00.035Z,87.71
2023-11-03T08:40:27.160Z,87.88
2023-11-03T08:42:54.637Z,87.83
2023-11-03T08:45:26.624Z,87.59
2023-11-03T08:47:53.577Z,87.38
2023-11-03T08:50:25.525Z,87.29
2023-11-03T08:52:55.280Z,87.23
2023-11-03T08:55:26.744Z,87.18
2023-11-03T08:57:56.600Z,86.85
2023-11-03T09:00:23.214Z,87.19
2023-11-03T09:02:50.242Z,86.99
2023-11-03T09:05:17.406Z,86.90
2023-11-03T09:07:45.695Z,86.82
2023-11-03T09:10:12.964Z,86.50
2023-11-03T09:12:44.076Z,86.83
2023-11-03T09:15:13.642Z,86.62
2023-11-03T09:17:45.957Z,86.49
2023-11-03T09:20:15.835Z,86.46
2023-11-03T09:22:43.233Z,86.57
2023-11-03T09:25:10.591Z,85.88
2023-11-03T09:27:39.584Z,85.98
2023-11-03T09:30:14.891Z,85.45
2023-11-03T09:32:44.551Z,85.44
2023-11-03T09:35:11.679Z,85.54
2023-11-03T09:37:40.743Z,85.56
2023-11-03T09:40:16.881Z,85.33
2023-11-03T09:42:48.331Z,85.19
2023-11-03T09:45:20.985Z,84.97
2023-11-03T09:47:50.251Z,84.97
2023-11-03T09:50:19.784Z,84.63
2023-11-03T09:52:55.058Z,84.08
2023-11-03T09:55:24.817Z,83.78
2023-11-03T09:57:59.149Z,83.44
2023-11-03T10:00:27.734Z,83.10
2023-11-03T10:02:54.659Z,83.10
2023-11-03T10:05:25.602Z,82.25
2023-11-03T10:08:06.293Z,82.41
2023-11-03T10:10:37.548Z,82.00
2023-11-03T10:13:10.790Z,81.94
2023-11-03T10:15:41.610Z,81.57
2023-11-03T10:18:16.311Z,81.70
2023-11-03T10:20:46.389Z,81.47
2023-11-03T10:23:14.618Z,81.39
2023-11-03T10:25:41.254Z,81.11
2023-11-03T10:28:08.972Z,81.21
2023-11-03T10:30:38.329Z,81.00
2023-11-03T10:33:06.001Z,80.65
2023-11-03T10:35:33.628Z,80.77
2023-11-03T10:38:03.225Z,80.49
2023-11-03T10:40:29.990Z,80.27
2023-11-03T10:43:04.551Z,80.45
2023-11-03T10:45:33.192Z,79.57
2023-11-03T10:48:23.230Z,80.05
2023-11-03T10:51:00.782Z,78.92
2023-11-03T10:53:53.253Z,78.79
2023-11-03T10:56:32.818Z,78.97
2023-11-03T10:59:10.493Z,77.94
2023-11-03T11:01:49.476Z,77.95
2023-11-03T11:04:28.260Z,77.19
2023-11-03T11:07:02.065Z,77.28
2023-11-03T11:09:38.289Z,77.43
2023-11-03T11:12:08.538Z,76.84
2023-11-03T11:14:42.291Z,77.12
2023-11-03T11:21:31.237Z,76.46
2023-11-03T11:24:01.098Z,76.86
2023-11-03T11:26:34.798Z,76.62
2023-11-03T11:29:04.512Z,77.34
2023-11-03T11:31:34.744Z,77.36
2023-11-03T11:34:17.095Z,76.98
2023-11-03T11:36:45.083Z,76.91
2023-11-03T11:39:16.267Z,77.29
2023-11-03T11:41:54.558Z,77.57
2023-11-03T11:44:27.120Z,77.80
2023-11-03T11:46:55.031Z,77.63
2023-11-03T11:49:23.229Z,77.88
2023-11-03T11:51:55.737Z,77.86
2023-11-03T11:54:23.731Z,77.78
2023-11-03T11:56:50.961Z,77.96
2023-11-03T11:59:21.219Z,77.33
2023-11-03T12:01:51.228Z,77.23
2023-11-03T12:04:18.887Z,77.06
2023-11-03T12:06:48.089Z,77.11
2023-11-03T12:09:17.601Z,77.45
2023-11-03T12:11:45.202Z,77.46
2023-11-03T12:14:12.579Z,77.22
2023-11-03T12:16:42.892Z,76.79
2023-11-03T12:19:17.659Z,76.62
2023-11-03T12:21:44.868Z,76.36
2023-11-03T12:24:13.800Z,76.41
2023-11-03T12:26:42.911Z,76.21
2023-11-03T12:29:48.976Z,76.40
2023-11-03T12:32:16.530Z,76.62
2023-11-03T12:34:44.392Z,76.32
2023-11-03T12:37:11.533Z,76.53
2023-11-03T12:39:52.114Z,75.91
2023-11-03T12:42:19.900Z,76.03
2023-11-03T12:44:50.436Z,76.25
2023-11-03T12:47:42.358Z,76.25
2023-11-03T12:50:26.865Z,76.25
2023-11-03T12:52:56.506Z,76.12
2023-11-03T12:55:37.313Z,75.95
2023-11-03T12:58:15.721Z,76.48
2023-11-03T13:00:50.483Z,75.93
2023-11-03T13:03:17.854Z,75.95
2023-11-03T13:05:51.015Z,75.31
2023-11-03T13:08:20.737Z,75.47
2023-11-03T13:10:51.164Z,75.64
2023-11-03T13:13:20.218Z,75.82
2023-11-03T13:15:46.740Z,76.10
2023-11-03T13:18:13.506Z,75.21
2023-11-03T13:20:42.601Z,75.71
2023-11-03T13:23:12.325Z,76.11
2023-11-03T13:25:42.842Z,75.69
2023-11-03T13:28:11.991Z,75.55
2023-11-03T13:30:39.463Z,75.52
2023-11-03T13:33:06.328Z,75.73
2023-11-03T13:35:35.132Z,75.78
2023-11-03T13:38:01.672Z,75.45
2023-11-03T13:40:30.120Z,75.74
2023-11-03T13:43:01.824Z,75.86
2023-11-03T13:45:28.500Z,75.90
2023-11-03T13:48:00.017Z,76.35
2023-11-03T13:50:27.216Z,76.53
2023-11-03T13:52:58.631Z,75.68
2023-11-03T13:55:29.117Z,75.57
2023-11-03T13:58:01.424Z,74.96
2023-11-03T14:00:28.630Z,74.98
2023-11-03T14:03:00.385Z,75.29
2023-11-03T14:05:29.193Z,75.28
2023-11-03T14:07:57.036Z,74.98
2023-11-03T14:10:23.598Z,75.51
2023-11-03T14:12:52.966Z,75.15
2023-11-03T14:15:20.003Z,75.22
2023-11-03T14:59:04.333Z,74.06
2023-11-03T15:37:27.743Z,73.92
2023-11-03T15:39:59.197Z,73.42
2023-11-03T15:42:28.540Z,73.56
2023-11-03T15:44:55.953Z,73.14
2023-11-03T15:47:27.264Z,73.54
2023-11-03T15:49:59.108Z,73.72
2023-11-03T15:52:27.401Z,74.03
2023-11-03T15:54:56.106Z,73.64
2023-11-03T15:57:23.124Z,74.00
2023-11-03T15:59:51.554Z,73.81
2023-11-03T16:02:18.568Z,74.20
2023-11-03T16:04:49.950Z,74.29
2023-11-03T16:07:19.655Z,74.77
2023-11-03T16:09:51.483Z,74.77
2023-11-03T16:12:20.657Z,74.68
2023-11-03T16:14:49.592Z,74.95
2023-11-03T16:17:19.018Z,75.08
2023-11-03T16:19:45.722Z,75.22
2023-11-03T16:22:17.602Z,75.77
2023-11-03T16:24:44.324Z,76.05
2023-11-03T16:27:13.561Z,76.15
2023-11-03T16:29:42.132Z,76.49
2023-11-03T16:32:09.476Z,76.58
2023-11-03T16:34:37.095Z,76.84
2023-11-03T16:37:05.544Z,76.79
2023-11-03T16:39:32.635Z,77.57
2023-11-03T16:42:01.805Z,77.48
2023-11-03T16:44:28.898Z,77.41
2023-11-03T16:46:55.900Z,77.39
2023-11-03T16:49:27.180Z,77.39
2023-11-03T16:51:54.491Z,77.94
2023-11-03T16:54:21.132Z,77.88
2023-11-03T16:56:50.023Z,77.99
2023-11-03T16:59:20.529Z,78.09
2023-11-03T17:01:49.466Z,77.96
2023-11-03T17:04:17.024Z,78.07
2023-11-03T17:06:45.994Z,78.27
2023-11-03T17:09:12.520Z,78.60
2023-11-03T17:11:41.476Z,78.58
2023-11-03T17:14:08.059Z,78.73
2023-11-03T17:16:37.304Z,78.39
2023-11-03T17:19:08.758Z,78.13
2023-11-03T17:21:35.310Z,77.69
2023-11-03T17:24:01.874Z,78.18
2023-11-03T17:26:28.401Z,78.18
2023-11-03T17:28:55.962Z,78.36
2023-11-03T17:31:25.555Z,77.85
2023-11-03T19:13:51.529Z,79.04
2023-11-03T19:23:28.678Z,78.88
2023-11-03T20:01:19.566Z,80.16
2023-11-03T20:03:46.443Z,80.39
2023-11-03T20:06:13.100Z,80.53
2023-11-03T20:08:42.623Z,80.42
2023-11-03T20:11:09.422Z,80.51
2023-11-03T20:13:38.698Z,80.72
2023-11-03T20:16:07.349Z,80.59
2023-11-03T20:18:33.916Z,80.69
2023-11-03T20:21:00.568Z,80.44
2023-11-03T20:23:30.510Z,80.88
2023-11-03T20:25:57.395Z,80.86
2023-11-03T20:28:24.077Z,80.45
2023-11-03T20:30:52.931Z,80.72
2023-11-03T20:33:22.465Z,80.41
2023-11-03T20:35:53.852Z,80.96
2023-11-03T20:38:20.429Z,81.07
2023-11-03T20:40:50.773Z,80.86
2023-11-03T20:43:22.141Z,80.87
2023-11-03T20:45:49.774Z,80.30
2023-11-03T20:48:17.058Z,80.91
2023-11-03T20:50:48.397Z,80.90
2023-11-03T20:53:18.057Z,80.95
2023-11-03T20:55:49.247Z,80.83
2023-11-03T20:58:16.798Z,80.68
2023-11-03T21:00:46.017Z,81.13
2023-11-03T21:03:15.400Z,80.74
2023-11-03T21:05:42.508Z,80.78
2023-11-03T21:08:11.846Z,80.94
2023-11-03T21:10:39.546Z,81.19
2023-11-03T21:13:07.102Z,81.10
2023-11-03T21:15:33.653Z,81.14
2023-11-03T21:18:04.838Z,81.00
2023-11-03T21:20:31.660Z,80.66
2023-11-03T21:22:58.217Z,80.98
2023-11-03T21:25:24.845Z,81.28
2023-11-03T21:27:51.441Z,81.36
2023-11-03T21:30:18.075Z,81.56
2023-11-03T21:32:47.121Z,81.51
2023-11-03T21:35:13.839Z,81.58
2023-11-03T21:37:42.855Z,81.66
2023-11-03T21:40:16.021Z,81.43
2023-11-03T21:42:43.355Z,81.55
2023-11-03T21:45:11.236Z,81.58
2023-11-03T21:47:38.062Z,81.56
2023-11-03T21:50:06.483Z,81.84
2023-11-03T21:52:33.619Z,81.71
2023-11-03T21:55:01.438Z,81.66
2023-11-03T21:57:30.370Z,82.08
2023-11-03T21:59:56.903Z,82.26
2023-11-03T22:02:23.492Z,82.39
2023-11-03T22:04:50.419Z,82.23
2023-11-03T22:07:19.178Z,82.37
2023-11-03T22:09:46.022Z,82.35
2023-11-03T22:12:15.333Z,82.53
2023-11-03T22:14:42.285Z,82.21
2023-11-03T22:17:08.793Z,82.18
2023-11-03T22:19:35.598Z,82.75
2023-11-03T22:22:07.076Z,82.21
2023-11-03T22:24:39.687Z,82.68
2023-11-03T22:27:06.402Z,82.74
2023-11-03T22:29:40.524Z,82.69
2023-11-03T22:32:07.262Z,82.58
2023-11-03T22:34:36.669Z,82.58
2023-11-03T22:37:03.571Z,82.88
2023-11-03T22:39:32.849Z,82.48
2023-11-03T22:41:59.772Z,82.65
2023-11-03T22:44:26.352Z,82.99
2023-11-03T22:46:52.917Z,82.82
2023-11-03T22:49:20.134Z,82.84
2023-11-03T22:51:47.566Z,83.30
2023-11-03T22:54:14.213Z,82.72
2023-11-03T22:56:40.931Z,82.46
2023-11-03T22:59:07.567Z,83.21
2023-11-03T23:01:41.172Z,83.43
2023-11-03T23:04:10.904Z,83.21
2023-11-03T23:06:37.845Z,83.24
2023-11-03T23:09:04.691Z,83.16
2023-11-03T23:11:31.735Z,83.31
2023-11-03T23:14:03.109Z,83.25
2023-11-03T23:16:29.616Z,83.21
2023-11-03T23:18:58.342Z,83.52
2023-11-03T23:21:24.939Z,83.24
2023-11-03T23:23:53.322Z,83.62
2023-11-03T23:26:20.348Z,83.80
2023-11-03T23:28:46.937Z,83.92
2023-11-03T23:31:14.102Z,83.57
2023-11-03T23:33:43.066Z,83.91
2023-11-03T23:36:13.030Z,83.10
2023-11-03T23:38:39.586Z,83.60
2023-11-03T23:41:08.332Z,83.47
2023-11-03T23:43:35.022Z,83.11
2023-11-03T23:46:04.788Z,83.12
2023-11-03T23:48:32.183Z,82.91
2023-11-03T23:51:01.597Z,83.06
2023-11-03T23:53:28.105Z,82.91
2023-11-03T23:55:54.684Z,82.78
2023-11-03T23:58:22.405Z,83.08
